UAL1010 MTPP-SKCG
Flight info
| Callsign | UAL1010 |
|---|---|
| Flight time | 1h 23m |
| Altitude | 36000 |
| Route | BOMEP UQ301 LENOM UG444 LIDOL UM597 ERIKO UW5 BAQ BAQ4B |
| Aircraft | A321/M-SDE3FGHIRWY/LB1 |
Departure
| Time | 2026-04-18 03:48 |
|---|---|
| Airport | Toussaint Louverture International Airport (MTPP) |
Arrival
| Time | 2026-04-18 05:11 |
|---|---|
| Airport | Rafael Nuñez International Airport (SKCG) |
| Time | Latitude | Longitude | Altitude | Speed | Heading |
|---|---|---|---|---|---|
| 2026-04-18 03:13 | 18.57627 | -72.29223 | 84 ft | 0 kts | 176° |
| 2026-04-18 03:35 | 18.57646 | -72.29225 | 85 ft | 4 kts | 183° |
| 2026-04-18 03:35 | 18.57669 | -72.29217 | 83 ft | 4 kts | 230° |
| 2026-04-18 03:35 | 18.57680 | -72.29197 | 84 ft | 1 kts | 252° |
| 2026-04-18 03:35 | 18.57680 | -72.29196 | 84 ft | 0 kts | 252° |
| 2026-04-18 03:38 | 18.57676 | -72.29224 | 85 ft | 12 kts | 266° |
| 2026-04-18 03:38 | 18.57676 | -72.29340 | 82 ft | 17 kts | 270° |
| 2026-04-18 03:38 | 18.57702 | -72.29445 | 80 ft | 13 kts | 323° |
| 2026-04-18 03:39 | 18.57783 | -72.29463 | 82 ft | 12 kts | 1° |
| 2026-04-18 03:39 | 18.57853 | -72.29463 | 83 ft | 9 kts | 356° |
| 2026-04-18 03:39 | 18.57867 | -72.29464 | 85 ft | 0 kts | 356° |
| 2026-04-18 03:44 | 18.57909 | -72.29467 | 85 ft | 17 kts | 357° |
| 2026-04-18 03:44 | 18.57981 | -72.29543 | 81 ft | 15 kts | 262° |
| 2026-04-18 03:44 | 18.57982 | -72.29665 | 79 ft | 22 kts | 268° |
| 2026-04-18 03:44 | 18.57974 | -72.29862 | 80 ft | 28 kts | 267° |
| 2026-04-18 03:45 | 18.57964 | -72.30066 | 76 ft | 28 kts | 267° |
| 2026-04-18 03:45 | 18.57954 | -72.30272 | 73 ft | 28 kts | 266° |
| 2026-04-18 03:45 | 18.57943 | -72.30475 | 75 ft | 28 kts | 267° |
| 2026-04-18 03:45 | 18.57909 | -72.30631 | 60 ft | 17 kts | 242° |
| 2026-04-18 03:46 | 18.57929 | -72.30676 | 55 ft | 5 kts | 11° |
| 2026-04-18 03:46 | 18.57937 | -72.30666 | 63 ft | 0 kts | 65° |
| 2026-04-18 03:46 | 18.57938 | -72.30650 | 59 ft | 9 kts | 88° |
| 2026-04-18 03:46 | 18.57939 | -72.30573 | 67 ft | 11 kts | 87° |
| 2026-04-18 03:47 | 18.57950 | -72.30356 | 74 ft | 62 kts | 86° |
| 2026-04-18 03:47 | 18.57986 | -72.29683 | 79 ft | 120 kts | 87° |
| 2026-04-18 03:47 | 18.58038 | -72.28642 | 98 ft | 163 kts | 86° |
| 2026-04-18 03:47 | 18.58075 | -72.27431 | 565 ft | 166 kts | 88° |
| 2026-04-18 03:48 | 18.58110 | -72.26219 | 1170 ft | 166 kts | 86° |
| 2026-04-18 03:48 | 18.58173 | -72.25006 | 1754 ft | 167 kts | 88° |
| 2026-04-18 03:48 | 18.57835 | -72.23805 | 2051 ft | 185 kts | 131° |
| 2026-04-18 03:48 | 18.56675 | -72.23098 | 2278 ft | 208 kts | 171° |
| 2026-04-18 03:49 | 18.55201 | -72.23399 | 2446 ft | 232 kts | 211° |
| 2026-04-18 03:49 | 18.53817 | -72.24435 | 2697 ft | 256 kts | 218° |
| 2026-04-18 03:49 | 18.52412 | -72.25671 | 3206 ft | 268 kts | 220° |
| 2026-04-18 03:49 | 18.51012 | -72.26953 | 3863 ft | 272 kts | 221° |
| 2026-04-18 03:50 | 18.49578 | -72.28268 | 4592 ft | 275 kts | 220° |
| 2026-04-18 03:50 | 18.48115 | -72.29591 | 5332 ft | 278 kts | 220° |
| 2026-04-18 03:50 | 18.46629 | -72.30914 | 6020 ft | 283 kts | 219° |
| 2026-04-18 03:50 | 18.45111 | -72.32250 | 6696 ft | 285 kts | 219° |
| 2026-04-18 03:51 | 18.43577 | -72.33593 | 7362 ft | 288 kts | 219° |
| 2026-04-18 03:51 | 18.42028 | -72.34946 | 7993 ft | 291 kts | 219° |
| 2026-04-18 03:51 | 18.40465 | -72.36313 | 8642 ft | 294 kts | 219° |
| 2026-04-18 03:51 | 18.38905 | -72.37677 | 9294 ft | 297 kts | 219° |
| 2026-04-18 03:52 | 18.37311 | -72.39066 | 9937 ft | 299 kts | 219° |
| 2026-04-18 03:52 | 18.35683 | -72.40484 | 10281 ft | 313 kts | 219° |
| 2026-04-18 03:52 | 18.33950 | -72.41992 | 10395 ft | 333 kts | 219° |
| 2026-04-18 03:52 | 18.32114 | -72.43591 | 10589 ft | 350 kts | 219° |
| 2026-04-18 03:53 | 18.30223 | -72.45241 | 11065 ft | 356 kts | 219° |
| 2026-04-18 03:53 | 18.28307 | -72.46912 | 11609 ft | 359 kts | 219° |
| 2026-04-18 03:53 | 18.26373 | -72.48597 | 12177 ft | 362 kts | 219° |
| 2026-04-18 03:53 | 18.24423 | -72.50296 | 12732 ft | 365 kts | 219° |
| 2026-04-18 03:54 | 18.22460 | -72.52003 | 13297 ft | 368 kts | 219° |
| 2026-04-18 03:54 | 18.20504 | -72.53702 | 13848 ft | 371 kts | 219° |
| 2026-04-18 03:54 | 18.18506 | -72.55438 | 14338 ft | 374 kts | 219° |
| 2026-04-18 03:54 | 18.16492 | -72.57189 | 14819 ft | 377 kts | 219° |
| 2026-04-18 03:55 | 18.14464 | -72.58952 | 15306 ft | 380 kts | 219° |
| 2026-04-18 03:55 | 18.12419 | -72.60730 | 15788 ft | 383 kts | 219° |
| 2026-04-18 03:55 | 18.10361 | -72.62519 | 16239 ft | 386 kts | 219° |
| 2026-04-18 03:55 | 18.08281 | -72.64325 | 16707 ft | 389 kts | 219° |
| 2026-04-18 03:56 | 18.06183 | -72.66143 | 17159 ft | 392 kts | 219° |
| 2026-04-18 03:56 | 18.04097 | -72.67950 | 17605 ft | 395 kts | 219° |
| 2026-04-18 03:56 | 18.01968 | -72.69795 | 18046 ft | 398 kts | 219° |
| 2026-04-18 03:56 | 17.99823 | -72.71653 | 18452 ft | 401 kts | 219° |
| 2026-04-18 03:57 | 17.95479 | -72.75418 | 19098 ft | 409 kts | 219° |
| 2026-04-18 03:57 | 17.93209 | -72.77227 | 19486 ft | 410 kts | 212° |
| 2026-04-18 03:57 | 17.90656 | -72.78571 | 19803 ft | 414 kts | 200° |
| 2026-04-18 03:58 | 17.87869 | -72.79336 | 20139 ft | 415 kts | 187° |
| 2026-04-18 03:58 | 17.85021 | -72.79489 | 20477 ft | 417 kts | 176° |
| 2026-04-18 03:58 | 17.82142 | -72.79087 | 20796 ft | 419 kts | 169° |
| 2026-04-18 03:58 | 17.79260 | -72.78565 | 21140 ft | 421 kts | 169° |
| 2026-04-18 03:59 | 17.76365 | -72.78039 | 21499 ft | 423 kts | 169° |
| 2026-04-18 03:59 | 17.73454 | -72.77510 | 21818 ft | 426 kts | 169° |
| 2026-04-18 03:59 | 17.70529 | -72.76980 | 22131 ft | 429 kts | 169° |
| 2026-04-18 03:59 | 17.67580 | -72.76449 | 22448 ft | 431 kts | 169° |
| 2026-04-18 04:00 | 17.64610 | -72.75948 | 22772 ft | 434 kts | 171° |
| 2026-04-18 04:00 | 17.61649 | -72.75512 | 23038 ft | 437 kts | 172° |
| 2026-04-18 04:00 | 17.58621 | -72.75103 | 23342 ft | 440 kts | 172° |
| 2026-04-18 04:00 | 17.55576 | -72.74706 | 23640 ft | 442 kts | 172° |
| 2026-04-18 04:01 | 17.52519 | -72.74308 | 23900 ft | 444 kts | 172° |
| 2026-04-18 04:01 | 17.49453 | -72.73900 | 24143 ft | 446 kts | 172° |
| 2026-04-18 04:01 | 17.46372 | -72.73478 | 24441 ft | 447 kts | 172° |
| 2026-04-18 04:01 | 17.43283 | -72.73048 | 24700 ft | 449 kts | 172° |
| 2026-04-18 04:02 | 17.40220 | -72.72616 | 24975 ft | 451 kts | 172° |
| 2026-04-18 04:02 | 17.37106 | -72.72176 | 25250 ft | 452 kts | 172° |
| 2026-04-18 04:02 | 17.33991 | -72.71737 | 25541 ft | 454 kts | 172° |
| 2026-04-18 04:02 | 17.30854 | -72.71296 | 25789 ft | 456 kts | 172° |
| 2026-04-18 04:03 | 17.27703 | -72.70855 | 26055 ft | 458 kts | 172° |
| 2026-04-18 04:03 | 17.24542 | -72.70413 | 26347 ft | 459 kts | 172° |
| 2026-04-18 04:03 | 17.21369 | -72.69970 | 26605 ft | 461 kts | 172° |
| 2026-04-18 04:03 | 17.18181 | -72.69525 | 26870 ft | 463 kts | 172° |
| 2026-04-18 04:04 | 17.15026 | -72.69087 | 27145 ft | 464 kts | 172° |
| 2026-04-18 04:04 | 17.11816 | -72.68641 | 27394 ft | 466 kts | 172° |
| 2026-04-18 04:04 | 17.08601 | -72.68194 | 27651 ft | 468 kts | 172° |
| 2026-04-18 04:04 | 17.05367 | -72.67746 | 27928 ft | 469 kts | 172° |
| 2026-04-18 04:05 | 17.02112 | -72.67403 | 28171 ft | 471 kts | 179° |
| 2026-04-18 04:05 | 16.98834 | -72.67554 | 28404 ft | 472 kts | 188° |
| 2026-04-18 04:05 | 16.95611 | -72.68236 | 28632 ft | 473 kts | 196° |
| 2026-04-18 04:05 | 16.92431 | -72.69163 | 28861 ft | 475 kts | 196° |
| 2026-04-18 04:06 | 16.89240 | -72.70092 | 29102 ft | 477 kts | 196° |
| 2026-04-18 04:06 | 16.86086 | -72.71010 | 29326 ft | 478 kts | 196° |
| 2026-04-18 04:06 | 16.82872 | -72.71941 | 29548 ft | 480 kts | 196° |
| 2026-04-18 04:06 | 16.79647 | -72.72870 | 29776 ft | 482 kts | 196° |
| 2026-04-18 04:07 | 16.76409 | -72.73798 | 30001 ft | 483 kts | 196° |
| 2026-04-18 04:07 | 16.73166 | -72.74728 | 30205 ft | 485 kts | 196° |
| 2026-04-18 04:07 | 16.69909 | -72.75666 | 30408 ft | 486 kts | 196° |
| 2026-04-18 04:07 | 16.66646 | -72.76605 | 30659 ft | 486 kts | 197° |
| 2026-04-18 04:08 | 16.63386 | -72.77542 | 30941 ft | 485 kts | 197° |
| 2026-04-18 04:08 | 16.60175 | -72.78465 | 31218 ft | 485 kts | 197° |
| 2026-04-18 04:08 | 16.56929 | -72.79395 | 31504 ft | 484 kts | 197° |
| 2026-04-18 04:08 | 16.53682 | -72.80323 | 31792 ft | 484 kts | 197° |
| 2026-04-18 04:09 | 16.50437 | -72.81248 | 32088 ft | 483 kts | 197° |
| 2026-04-18 04:09 | 16.47198 | -72.82175 | 32395 ft | 482 kts | 197° |
| 2026-04-18 04:09 | 16.43969 | -72.83102 | 32695 ft | 481 kts | 198° |
| 2026-04-18 04:09 | 16.40745 | -72.84030 | 32999 ft | 480 kts | 198° |
| 2026-04-18 04:10 | 16.37534 | -72.84955 | 33289 ft | 479 kts | 198° |
| 2026-04-18 04:10 | 16.34323 | -72.85878 | 33588 ft | 479 kts | 198° |
| 2026-04-18 04:10 | 16.31154 | -72.86782 | 33874 ft | 478 kts | 198° |
| 2026-04-18 04:10 | 16.27953 | -72.87698 | 34144 ft | 476 kts | 198° |
| 2026-04-18 04:11 | 16.24758 | -72.88613 | 34384 ft | 476 kts | 198° |
| 2026-04-18 04:11 | 16.21565 | -72.89522 | 34608 ft | 476 kts | 198° |
| 2026-04-18 04:11 | 16.18379 | -72.90427 | 34833 ft | 475 kts | 198° |
| 2026-04-18 04:11 | 16.15189 | -72.91332 | 35041 ft | 475 kts | 198° |
| 2026-04-18 04:12 | 16.12000 | -72.92238 | 35251 ft | 475 kts | 198° |
| 2026-04-18 04:12 | 16.08815 | -72.93144 | 35462 ft | 474 kts | 198° |
| 2026-04-18 04:12 | 16.05636 | -72.94052 | 35667 ft | 474 kts | 198° |
| 2026-04-18 04:12 | 16.02496 | -72.94949 | 35862 ft | 474 kts | 198° |
| 2026-04-18 04:13 | 15.99310 | -72.95856 | 35951 ft | 474 kts | 198° |
| 2026-04-18 04:13 | 15.92963 | -72.97660 | 35975 ft | 472 kts | 198° |
| 2026-04-18 04:14 | 15.86628 | -72.99458 | 35976 ft | 472 kts | 198° |
| 2026-04-18 04:14 | 15.80306 | -73.01257 | 35975 ft | 471 kts | 198° |
| 2026-04-18 04:15 | 15.74021 | -73.03044 | 35978 ft | 471 kts | 199° |
| 2026-04-18 04:15 | 15.67694 | -73.04842 | 35979 ft | 471 kts | 198° |
| 2026-04-18 04:16 | 15.61369 | -73.06625 | 35974 ft | 471 kts | 198° |
| 2026-04-18 04:16 | 15.55038 | -73.08414 | 35980 ft | 471 kts | 198° |
| 2026-04-18 04:17 | 15.48751 | -73.10193 | 35983 ft | 471 kts | 198° |
| 2026-04-18 04:17 | 15.42429 | -73.11985 | 35985 ft | 471 kts | 198° |
| 2026-04-18 04:18 | 15.36103 | -73.13778 | 35983 ft | 471 kts | 198° |
| 2026-04-18 04:18 | 15.29783 | -73.15568 | 35977 ft | 470 kts | 198° |
| 2026-04-18 04:19 | 15.23507 | -73.17335 | 35984 ft | 470 kts | 198° |
| 2026-04-18 04:19 | 15.17207 | -73.19115 | 35985 ft | 470 kts | 198° |
| 2026-04-18 04:20 | 15.10953 | -73.21029 | 35981 ft | 466 kts | 206° |
| 2026-04-18 04:20 | 15.05453 | -73.24391 | 35977 ft | 456 kts | 224° |
| 2026-04-18 04:21 | 15.00825 | -73.28829 | 35958 ft | 454 kts | 227° |
| 2026-04-18 04:21 | 14.96241 | -73.33268 | 35953 ft | 455 kts | 227° |
| 2026-04-18 04:22 | 14.91612 | -73.37733 | 35958 ft | 455 kts | 226° |
| 2026-04-18 04:22 | 14.86974 | -73.42194 | 35963 ft | 455 kts | 226° |
| 2026-04-18 04:23 | 14.82440 | -73.46744 | 35966 ft | 454 kts | 229° |
| 2026-04-18 04:23 | 14.78052 | -73.51381 | 35970 ft | 454 kts | 229° |
| 2026-04-18 04:24 | 14.73640 | -73.56053 | 35970 ft | 454 kts | 229° |
| 2026-04-18 04:24 | 14.69187 | -73.60681 | 35959 ft | 454 kts | 229° |
| 2026-04-18 04:25 | 14.64715 | -73.65297 | 35958 ft | 454 kts | 229° |
| 2026-04-18 04:25 | 14.60279 | -73.69885 | 35968 ft | 455 kts | 229° |
| 2026-04-18 04:26 | 14.55815 | -73.74514 | 35972 ft | 455 kts | 229° |
| 2026-04-18 04:26 | 14.51346 | -73.79139 | 35963 ft | 455 kts | 229° |
| 2026-04-18 04:27 | 14.46873 | -73.83767 | 35967 ft | 455 kts | 229° |
| 2026-04-18 04:27 | 14.42437 | -73.88358 | 35970 ft | 455 kts | 229° |
| 2026-04-18 04:28 | 14.37963 | -73.92977 | 35974 ft | 455 kts | 228° |
| 2026-04-18 04:28 | 14.33482 | -73.97596 | 35948 ft | 455 kts | 228° |
| 2026-04-18 04:29 | 14.29006 | -74.02222 | 35954 ft | 455 kts | 228° |
| 2026-04-18 04:29 | 14.24576 | -74.06823 | 35947 ft | 455 kts | 229° |
| 2026-04-18 04:30 | 14.20098 | -74.11447 | 35948 ft | 457 kts | 225° |
| 2026-04-18 04:30 | 14.14752 | -74.15035 | 35957 ft | 464 kts | 205° |
| 2026-04-18 04:31 | 14.08489 | -74.16759 | 35956 ft | 469 kts | 194° |
| 2026-04-18 04:31 | 14.02136 | -74.18104 | 35955 ft | 469 kts | 194° |
| 2026-04-18 04:32 | 13.95741 | -74.19487 | 35947 ft | 470 kts | 194° |
| 2026-04-18 04:32 | 13.89347 | -74.20858 | 35956 ft | 470 kts | 194° |
| 2026-04-18 04:33 | 13.82942 | -74.22218 | 35955 ft | 470 kts | 194° |
| 2026-04-18 04:33 | 13.76534 | -74.23578 | 35954 ft | 470 kts | 194° |
| 2026-04-18 04:34 | 13.70179 | -74.24931 | 35950 ft | 470 kts | 194° |
| 2026-04-18 04:34 | 13.63775 | -74.26289 | 35959 ft | 470 kts | 194° |
| 2026-04-18 04:35 | 13.57376 | -74.27647 | 35964 ft | 469 kts | 194° |
| 2026-04-18 04:35 | 13.51023 | -74.28999 | 35964 ft | 469 kts | 194° |
| 2026-04-18 04:36 | 13.44634 | -74.30359 | 35966 ft | 469 kts | 194° |
| 2026-04-18 04:36 | 13.38237 | -74.31710 | 35967 ft | 469 kts | 194° |
| 2026-04-18 04:37 | 13.31845 | -74.33061 | 35965 ft | 468 kts | 194° |
| 2026-04-18 04:37 | 13.25472 | -74.34404 | 35969 ft | 467 kts | 194° |
| 2026-04-18 04:38 | 13.19148 | -74.35745 | 35964 ft | 467 kts | 194° |
| 2026-04-18 04:38 | 13.12793 | -74.37096 | 35957 ft | 466 kts | 194° |
| 2026-04-18 04:39 | 13.06439 | -74.38439 | 35959 ft | 466 kts | 194° |
| 2026-04-18 04:39 | 13.00090 | -74.39782 | 35954 ft | 466 kts | 194° |
| 2026-04-18 04:40 | 12.93780 | -74.41120 | 35956 ft | 466 kts | 194° |
| 2026-04-18 04:40 | 12.87436 | -74.42465 | 35960 ft | 465 kts | 194° |
| 2026-04-18 04:41 | 12.81105 | -74.43800 | 35959 ft | 465 kts | 194° |
| 2026-04-18 04:41 | 12.74770 | -74.45135 | 35957 ft | 464 kts | 194° |
| 2026-04-18 04:42 | 12.68492 | -74.46463 | 35948 ft | 464 kts | 194° |
| 2026-04-18 04:42 | 12.62167 | -74.47792 | 35943 ft | 463 kts | 194° |
| 2026-04-18 04:43 | 12.55853 | -74.49125 | 35948 ft | 463 kts | 194° |
| 2026-04-18 04:43 | 12.49549 | -74.50447 | 35947 ft | 463 kts | 194° |
| 2026-04-18 04:44 | 12.43284 | -74.51761 | 35954 ft | 462 kts | 194° |
| 2026-04-18 04:44 | 12.36982 | -74.53085 | 35950 ft | 462 kts | 194° |
| 2026-04-18 04:45 | 12.30679 | -74.54412 | 35948 ft | 462 kts | 194° |
| 2026-04-18 04:45 | 12.24391 | -74.55742 | 35969 ft | 461 kts | 194° |
| 2026-04-18 04:46 | 12.18101 | -74.57059 | 35955 ft | 461 kts | 194° |
| 2026-04-18 04:46 | 12.11862 | -74.58368 | 35965 ft | 460 kts | 194° |
| 2026-04-18 04:47 | 12.05591 | -74.59686 | 35951 ft | 460 kts | 194° |
| 2026-04-18 04:47 | 11.99329 | -74.61003 | 35950 ft | 460 kts | 194° |
| 2026-04-18 04:48 | 11.93067 | -74.62318 | 35959 ft | 459 kts | 194° |
| 2026-04-18 04:48 | 11.86867 | -74.63614 | 35956 ft | 458 kts | 194° |
| 2026-04-18 04:49 | 11.80634 | -74.64925 | 35952 ft | 457 kts | 194° |
| 2026-04-18 04:49 | 11.74406 | -74.66230 | 35683 ft | 456 kts | 194° |
| 2026-04-18 04:49 | 11.71284 | -74.66882 | 34981 ft | 460 kts | 194° |
| 2026-04-18 04:50 | 11.68137 | -74.67538 | 34241 ft | 463 kts | 194° |
| 2026-04-18 04:50 | 11.64998 | -74.68193 | 33309 ft | 470 kts | 194° |
| 2026-04-18 04:50 | 11.61798 | -74.68864 | 32694 ft | 468 kts | 194° |
| 2026-04-18 04:50 | 11.58618 | -74.69530 | 32138 ft | 465 kts | 194° |
| 2026-04-18 04:51 | 11.55450 | -74.70193 | 31570 ft | 463 kts | 193° |
| 2026-04-18 04:51 | 11.52298 | -74.70852 | 30990 ft | 461 kts | 194° |
| 2026-04-18 04:51 | 11.49163 | -74.71508 | 30415 ft | 459 kts | 194° |
| 2026-04-18 04:51 | 11.46035 | -74.72161 | 29846 ft | 458 kts | 193° |
| 2026-04-18 04:52 | 11.42928 | -74.72812 | 29255 ft | 455 kts | 194° |
| 2026-04-18 04:52 | 11.39839 | -74.73460 | 28706 ft | 451 kts | 194° |
| 2026-04-18 04:52 | 11.36815 | -74.74094 | 28165 ft | 448 kts | 193° |
| 2026-04-18 04:52 | 11.33774 | -74.74728 | 27622 ft | 444 kts | 194° |
| 2026-04-18 04:53 | 11.30756 | -74.75357 | 27093 ft | 441 kts | 192° |
| 2026-04-18 04:53 | 11.27760 | -74.75982 | 26580 ft | 438 kts | 193° |
| 2026-04-18 04:53 | 11.24794 | -74.76601 | 26070 ft | 434 kts | 192° |
| 2026-04-18 04:53 | 11.21843 | -74.77216 | 25582 ft | 431 kts | 192° |
| 2026-04-18 04:54 | 11.18915 | -74.77823 | 25093 ft | 428 kts | 192° |
| 2026-04-18 04:54 | 11.16048 | -74.78414 | 24628 ft | 424 kts | 192° |
| 2026-04-18 04:54 | 11.13165 | -74.79012 | 24156 ft | 421 kts | 192° |
| 2026-04-18 04:54 | 11.10303 | -74.79610 | 23676 ft | 419 kts | 192° |
| 2026-04-18 04:55 | 11.07463 | -74.80205 | 23150 ft | 416 kts | 192° |
| 2026-04-18 04:55 | 11.04643 | -74.80794 | 22668 ft | 411 kts | 192° |
| 2026-04-18 04:55 | 11.01856 | -74.81375 | 22196 ft | 406 kts | 193° |
| 2026-04-18 04:56 | 10.96367 | -74.82518 | 21247 ft | 399 kts | 192° |
| 2026-04-18 04:56 | 10.93659 | -74.83080 | 20770 ft | 396 kts | 193° |
| 2026-04-18 04:56 | 10.90972 | -74.83639 | 20291 ft | 393 kts | 193° |
| 2026-04-18 04:56 | 10.88308 | -74.84194 | 19827 ft | 390 kts | 193° |
| 2026-04-18 04:57 | 10.85691 | -74.84740 | 19360 ft | 388 kts | 193° |
| 2026-04-18 04:57 | 10.83056 | -74.85294 | 18890 ft | 386 kts | 194° |
| 2026-04-18 04:57 | 10.80526 | -74.86141 | 18428 ft | 381 kts | 206° |
| 2026-04-18 04:57 | 10.78268 | -74.87518 | 17936 ft | 377 kts | 219° |
| 2026-04-18 04:58 | 10.76370 | -74.89318 | 17479 ft | 372 kts | 227° |
| 2026-04-18 04:58 | 10.74589 | -74.91191 | 17129 ft | 366 kts | 227° |
| 2026-04-18 04:58 | 10.72826 | -74.93038 | 16690 ft | 362 kts | 227° |
| 2026-04-18 04:58 | 10.71074 | -74.94866 | 16258 ft | 359 kts | 226° |
| 2026-04-18 04:59 | 10.69357 | -74.96650 | 15842 ft | 356 kts | 226° |
| 2026-04-18 04:59 | 10.67632 | -74.98445 | 15418 ft | 353 kts | 226° |
| 2026-04-18 04:59 | 10.65922 | -75.00228 | 14995 ft | 351 kts | 226° |
| 2026-04-18 04:59 | 10.64224 | -75.01999 | 14567 ft | 349 kts | 226° |
| 2026-04-18 05:00 | 10.62542 | -75.03756 | 14159 ft | 346 kts | 226° |
| 2026-04-18 05:00 | 10.60863 | -75.05506 | 13735 ft | 345 kts | 226° |
| 2026-04-18 05:00 | 10.59194 | -75.07247 | 13274 ft | 343 kts | 225° |
| 2026-04-18 05:00 | 10.57538 | -75.08975 | 12847 ft | 340 kts | 225° |
| 2026-04-18 05:01 | 10.55894 | -75.10688 | 12427 ft | 337 kts | 226° |
| 2026-04-18 05:01 | 10.54262 | -75.12388 | 11993 ft | 335 kts | 226° |
| 2026-04-18 05:01 | 10.52662 | -75.14054 | 11569 ft | 333 kts | 226° |
| 2026-04-18 05:01 | 10.51054 | -75.15729 | 11145 ft | 331 kts | 226° |
| 2026-04-18 05:02 | 10.49451 | -75.17400 | 10716 ft | 329 kts | 226° |
| 2026-04-18 05:02 | 10.47855 | -75.19064 | 10285 ft | 327 kts | 226° |
| 2026-04-18 05:02 | 10.46321 | -75.20662 | 10100 ft | 303 kts | 226° |
| 2026-04-18 05:02 | 10.44881 | -75.22160 | 9583 ft | 291 kts | 227° |
| 2026-04-18 05:03 | 10.43479 | -75.23619 | 9419 ft | 288 kts | 226° |
| 2026-04-18 05:03 | 10.42083 | -75.25069 | 9282 ft | 288 kts | 226° |
| 2026-04-18 05:03 | 10.40686 | -75.26526 | 9016 ft | 287 kts | 226° |
| 2026-04-18 05:03 | 10.39312 | -75.27956 | 8663 ft | 286 kts | 226° |
| 2026-04-18 05:04 | 10.37925 | -75.29399 | 8293 ft | 285 kts | 226° |
| 2026-04-18 05:04 | 10.36544 | -75.30838 | 7925 ft | 284 kts | 226° |
| 2026-04-18 05:04 | 10.35166 | -75.32272 | 7550 ft | 283 kts | 226° |
| 2026-04-18 05:04 | 10.33795 | -75.33697 | 7188 ft | 282 kts | 226° |
| 2026-04-18 05:05 | 10.32426 | -75.35120 | 6826 ft | 281 kts | 226° |
| 2026-04-18 05:05 | 10.31063 | -75.36536 | 6458 ft | 278 kts | 225° |
| 2026-04-18 05:05 | 10.29717 | -75.37933 | 6090 ft | 276 kts | 225° |
| 2026-04-18 05:05 | 10.28398 | -75.39306 | 5729 ft | 274 kts | 225° |
| 2026-04-18 05:06 | 10.27093 | -75.40708 | 5373 ft | 272 kts | 232° |
| 2026-04-18 05:06 | 10.26221 | -75.42390 | 5025 ft | 270 kts | 254° |
| 2026-04-18 05:06 | 10.26019 | -75.44269 | 4658 ft | 269 kts | 272° |
| 2026-04-18 05:06 | 10.26116 | -75.46163 | 4265 ft | 268 kts | 276° |
| 2026-04-18 05:07 | 10.26560 | -75.47989 | 3896 ft | 267 kts | 294° |
| 2026-04-18 05:07 | 10.27509 | -75.49571 | 3564 ft | 257 kts | 311° |
| 2026-04-18 05:07 | 10.28779 | -75.50737 | 3159 ft | 240 kts | 327° |
| 2026-04-18 05:07 | 10.30252 | -75.51480 | 2592 ft | 233 kts | 344° |
| 2026-04-18 05:08 | 10.31773 | -75.51771 | 2235 ft | 218 kts | 359° |
| 2026-04-18 05:08 | 10.33228 | -75.51739 | 1920 ft | 200 kts | 4° |
| 2026-04-18 05:08 | 10.34538 | -75.51688 | 1647 ft | 178 kts | 4° |
| 2026-04-18 05:08 | 10.35725 | -75.51640 | 1410 ft | 165 kts | 4° |
| 2026-04-18 05:09 | 10.36828 | -75.51595 | 1212 ft | 154 kts | 5° |
| 2026-04-18 05:09 | 10.37875 | -75.51552 | 1016 ft | 150 kts | 5° |
| 2026-04-18 05:09 | 10.38907 | -75.51509 | 832 ft | 146 kts | 4° |
| 2026-04-18 05:09 | 10.39911 | -75.51468 | 662 ft | 143 kts | 4° |
| 2026-04-18 05:10 | 10.40894 | -75.51428 | 484 ft | 146 kts | 2° |
| 2026-04-18 05:10 | 10.41904 | -75.51388 | 314 ft | 144 kts | 2° |
| 2026-04-18 05:10 | 10.42897 | -75.51345 | 87 ft | 141 kts | 4° |
| 2026-04-18 05:10 | 10.43854 | -75.51302 | 14 ft | 130 kts | 2° |
| 2026-04-18 05:11 | 10.44574 | -75.51279 | 12 ft | 65 kts | 2° |
| 2026-04-18 05:11 | 10.44894 | -75.51264 | 17 ft | 35 kts | 3° |
| 2026-04-18 05:11 | 10.45107 | -75.51262 | 13 ft | 18 kts | 356° |
| 2026-04-18 05:11 | 10.45189 | -75.51287 | 13 ft | 7 kts | 342° |
| 2026-04-18 05:12 | 10.45194 | -75.51285 | 13 ft | 1 kts | 11° |
| 2026-04-18 05:12 | 10.45247 | -75.51278 | 14 ft | 13 kts | 17° |
| 2026-04-18 05:12 | 10.45269 | -75.51229 | 13 ft | 4 kts | 129° |
| 2026-04-18 05:12 | 10.45266 | -75.51227 | 13 ft | 0 kts | 138° |
| 2026-04-18 05:14 | 10.45266 | -75.51226 | 13 ft | 1 kts | 139° |
| 2026-04-18 05:14 | 10.45211 | -75.51218 | 14 ft | 13 kts | 194° |
| 2026-04-18 05:15 | 10.45128 | -75.51248 | 13 ft | 13 kts | 192° |
| 2026-04-18 05:15 | 10.45025 | -75.51258 | 15 ft | 15 kts | 184° |
| 2026-04-18 05:15 | 10.44921 | -75.51263 | 16 ft | 16 kts | 181° |
| 2026-04-18 05:15 | 10.44809 | -75.51267 | 14 ft | 18 kts | 182° |
| 2026-04-18 05:16 | 10.44659 | -75.51295 | 12 ft | 21 kts | 232° |
| 2026-04-18 05:16 | 10.44647 | -75.51397 | 12 ft | 16 kts | 259° |
| 2026-04-18 05:16 | 10.44574 | -75.51467 | 12 ft | 11 kts | 211° |
| 2026-04-18 05:16 | 10.44542 | -75.51489 | 12 ft | 2 kts | 238° |
| 2026-04-18 05:17 | 10.44538 | -75.51499 | 12 ft | 1 kts | 253° |
| 2026-04-18 05:17 | 10.44538 | -75.51500 | 12 ft | 0 kts | 255° |
| 2026-04-18 05:18 | 10.44533 | -75.51505 | 12 ft | 4 kts | 225° |
| 2026-04-18 05:18 | 10.44510 | -75.51503 | 12 ft | 4 kts | 169° |
| 2026-04-18 05:19 | 10.44495 | -75.51517 | 12 ft | 5 kts | 235° |
| 2026-04-18 05:19 | 10.44492 | -75.51537 | 12 ft | 1 kts | 278° |
| 2026-04-18 05:19 | 10.44492 | -75.51552 | 12 ft | 1 kts | 269° |
| 2026-04-18 05:19 | 10.44492 | -75.51557 | 12 ft | 0 kts | 269° |
| 2026-04-18 05:20 | 10.44492 | -75.51551 | 12 ft | 0 kts | 271° |
| 2026-04-18 05:40 | 10.44491 | -75.51527 | 11 ft | 4 kts | 271° |
| 2026-04-18 05:40 | 10.44491 | -75.51500 | 13 ft | 4 kts | 271° |
| 2026-04-18 05:41 | 10.44490 | -75.51472 | 12 ft | 4 kts | 271° |
| 2026-04-18 05:41 | 10.44490 | -75.51460 | 12 ft | 0 kts | 271° |
| 2026-04-18 05:44 | 10.44502 | -75.51456 | 15 ft | 3 kts | 41° |
| 2026-04-18 05:44 | 10.44504 | -75.51442 | 12 ft | 4 kts | 83° |
| 2026-04-18 05:45 | 10.44531 | -75.51376 | 12 ft | 12 kts | 59° |
| 2026-04-18 05:45 | 10.44534 | -75.51301 | 12 ft | 10 kts | 130° |
| 2026-04-18 05:45 | 10.44427 | -75.51284 | 11 ft | 23 kts | 188° |
| 2026-04-18 05:45 | 10.44256 | -75.51292 | 11 ft | 25 kts | 182° |
| 2026-04-18 05:46 | 10.44085 | -75.51300 | 8 ft | 24 kts | 183° |
| 2026-04-18 05:46 | 10.43923 | -75.51303 | 10 ft | 22 kts | 180° |
| 2026-04-18 05:46 | 10.43773 | -75.51307 | 9 ft | 21 kts | 182° |
| 2026-04-18 05:46 | 10.43632 | -75.51314 | 10 ft | 20 kts | 182° |
| 2026-04-18 05:47 | 10.43503 | -75.51320 | 12 ft | 17 kts | 183° |
| 2026-04-18 05:47 | 10.43391 | -75.51325 | 13 ft | 15 kts | 182° |
| 2026-04-18 05:47 | 10.43273 | -75.51329 | 15 ft | 19 kts | 180° |
| 2026-04-18 05:47 | 10.43171 | -75.51264 | 13 ft | 17 kts | 136° |
| 2026-04-18 05:48 | 10.43076 | -75.51256 | 12 ft | 14 kts | 234° |
| 2026-04-18 05:48 | 10.43097 | -75.51332 | 13 ft | 11 kts | 331° |
| 2026-04-18 05:48 | 10.43163 | -75.51333 | 12 ft | 9 kts | 2° |
| 2026-04-18 05:48 | 10.43183 | -75.51332 | 12 ft | 0 kts | 2° |
| 2026-04-18 05:50 | 10.43298 | -75.51328 | 13 ft | 49 kts | 2° |
| 2026-04-18 05:50 | 10.43871 | -75.51305 | 10 ft | 113 kts | 2° |
| 2026-04-18 05:50 | 10.44810 | -75.51263 | 26 ft | 157 kts | 3° |
| 2026-04-18 05:51 | 10.45904 | -75.51201 | 635 ft | 152 kts | 2° |
| 2026-04-18 05:51 | 10.46905 | -75.51371 | 1309 ft | 145 kts | 336° |
| 2026-04-18 05:51 | 10.47677 | -75.52034 | 1786 ft | 156 kts | 307° |
| 2026-04-18 05:51 | 10.48077 | -75.53154 | 1976 ft | 185 kts | 277° |
| 2026-04-18 05:52 | 10.47915 | -75.54536 | 2162 ft | 209 kts | 251° |
| 2026-04-18 05:52 | 10.47246 | -75.55920 | 2320 ft | 230 kts | 241° |
| 2026-04-18 05:52 | 10.46404 | -75.57424 | 2262 ft | 261 kts | 242° |
| 2026-04-18 05:52 | 10.45583 | -75.59113 | 2051 ft | 269 kts | 248° |
| 2026-04-18 05:53 | 10.44963 | -75.60881 | 1853 ft | 269 kts | 256° |
| 2026-04-18 05:53 | 10.44598 | -75.62748 | 1596 ft | 269 kts | 266° |
| 2026-04-18 05:53 | 10.44559 | -75.64618 | 1570 ft | 265 kts | 270° |
| 2026-04-18 05:53 | 10.44280 | -75.66480 | 1596 ft | 269 kts | 251° |
| 2026-04-18 05:54 | 10.43438 | -75.68178 | 1606 ft | 270 kts | 235° |
| 2026-04-18 05:54 | 10.42246 | -75.69652 | 1606 ft | 270 kts | 227° |
| 2026-04-18 05:54 | 10.41370 | -75.70546 | 1605 ft | 270 kts | 223° |
| 2026-04-18 05:54 | 10.39495 | -75.72250 | 1604 ft | 270 kts | 220° |
| 2026-04-18 05:55 | 10.38310 | -75.73685 | 1601 ft | 269 kts | 243° |
| 2026-04-18 05:55 | 10.37806 | -75.75493 | 1601 ft | 268 kts | 269° |
| 2026-04-18 05:55 | 10.38076 | -75.77347 | 1602 ft | 266 kts | 293° |
| 2026-04-18 05:55 | 10.38601 | -75.78488 | 1599 ft | 265 kts | 298° |
| 2026-04-18 05:56 | 10.39419 | -75.80143 | 1601 ft | 266 kts | 299° |
| 2026-04-18 05:56 | 10.40533 | -75.82394 | 1691 ft | 269 kts | 299° |
| 2026-04-18 05:56 | 10.41094 | -75.83525 | 2217 ft | 270 kts | 299° |
| 2026-04-18 05:56 | 10.41938 | -75.85234 | 3063 ft | 271 kts | 298° |
| 2026-04-18 05:57 | 10.43917 | -75.89255 | 4902 ft | 276 kts | 296° |
| 2026-04-18 05:57 | 10.44776 | -75.91005 | 5670 ft | 279 kts | 296° |
| 2026-04-18 05:57 | 10.45364 | -75.92201 | 6158 ft | 281 kts | 296° |
| 2026-04-18 05:58 | 10.46230 | -75.93959 | 6828 ft | 283 kts | 296° |
| 2026-04-18 05:58 | 10.47410 | -75.96352 | 7793 ft | 283 kts | 295° |
| 2026-04-18 05:58 | 10.47994 | -75.97538 | 8284 ft | 283 kts | 295° |
| 2026-04-18 05:58 | 10.48868 | -75.99321 | 9032 ft | 283 kts | 295° |
| 2026-04-18 05:59 | 10.49747 | -76.01114 | 9730 ft | 284 kts | 295° |
| 2026-04-18 05:59 | 10.50639 | -76.02934 | 10187 ft | 295 kts | 295° |
| 2026-04-18 05:59 | 10.51585 | -76.04866 | 10301 ft | 316 kts | 295° |
| 2026-04-18 05:59 | 10.52591 | -76.06925 | 10486 ft | 333 kts | 295° |
| 2026-04-18 06:00 | 10.53635 | -76.09057 | 10933 ft | 340 kts | 295° |
| 2026-04-18 06:00 | 10.54682 | -76.11189 | 11482 ft | 344 kts | 295° |
| 2026-04-18 06:00 | 10.55756 | -76.13375 | 12010 ft | 348 kts | 295° |
| 2026-04-18 06:00 | 10.56842 | -76.15582 | 12576 ft | 350 kts | 295° |
| 2026-04-18 06:01 | 10.57935 | -76.17799 | 13161 ft | 352 kts | 295° |
| 2026-04-18 06:01 | 10.59035 | -76.20030 | 13675 ft | 356 kts | 295° |
| 2026-04-18 06:01 | 10.60149 | -76.22294 | 14156 ft | 359 kts | 296° |
| 2026-04-18 06:01 | 10.61263 | -76.24564 | 14638 ft | 361 kts | 296° |
| 2026-04-18 06:02 | 10.62384 | -76.26853 | 15137 ft | 363 kts | 296° |
| 2026-04-18 06:02 | 10.63511 | -76.29158 | 15622 ft | 365 kts | 296° |
| 2026-04-18 06:02 | 10.64630 | -76.31446 | 16111 ft | 367 kts | 296° |
| 2026-04-18 06:02 | 10.65771 | -76.33773 | 16586 ft | 370 kts | 296° |
| 2026-04-18 06:03 | 10.66921 | -76.36119 | 17065 ft | 372 kts | 296° |
| 2026-04-18 06:03 | 10.68085 | -76.38494 | 17367 ft | 379 kts | 296° |
| 2026-04-18 06:03 | 10.69263 | -76.40898 | 17910 ft | 378 kts | 297° |
| 2026-04-18 06:03 | 10.70439 | -76.43297 | 18374 ft | 380 kts | 297° |
| 2026-04-18 06:04 | 10.71623 | -76.45714 | 18736 ft | 383 kts | 297° |
| 2026-04-18 06:04 | 10.72809 | -76.48142 | 19109 ft | 385 kts | 297° |
| 2026-04-18 06:04 | 10.74006 | -76.50591 | 19468 ft | 388 kts | 297° |
| 2026-04-18 06:04 | 10.75199 | -76.53033 | 19735 ft | 393 kts | 297° |
| 2026-04-18 06:05 | 10.76421 | -76.55536 | 20028 ft | 398 kts | 297° |
| 2026-04-18 06:05 | 10.77659 | -76.58071 | 20295 ft | 402 kts | 297° |
| 2026-04-18 06:05 | 10.78906 | -76.60627 | 20613 ft | 405 kts | 297° |
| 2026-04-18 06:05 | 10.80162 | -76.63200 | 20944 ft | 407 kts | 297° |
| 2026-04-18 06:06 | 10.81424 | -76.65783 | 21263 ft | 410 kts | 297° |
| 2026-04-18 06:06 | 10.82697 | -76.68388 | 21578 ft | 412 kts | 297° |
| 2026-04-18 06:06 | 10.83976 | -76.71009 | 21900 ft | 415 kts | 297° |
| 2026-04-18 06:06 | 10.85243 | -76.73614 | 22207 ft | 417 kts | 297° |
| 2026-04-18 06:07 | 10.86536 | -76.76269 | 22508 ft | 420 kts | 297° |
| 2026-04-18 06:07 | 10.87837 | -76.78941 | 22823 ft | 423 kts | 297° |
| 2026-04-18 06:07 | 10.89144 | -76.81623 | 23098 ft | 425 kts | 297° |
| 2026-04-18 06:07 | 10.90461 | -76.84327 | 23381 ft | 428 kts | 297° |
| 2026-04-18 06:08 | 10.91783 | -76.87047 | 23632 ft | 430 kts | 298° |
| 2026-04-18 06:08 | 10.93114 | -76.89783 | 23863 ft | 432 kts | 298° |
| 2026-04-18 06:08 | 10.94436 | -76.92491 | 24129 ft | 433 kts | 297° |
| 2026-04-18 06:08 | 10.95778 | -76.95242 | 24412 ft | 434 kts | 297° |
| 2026-04-18 06:09 | 10.97123 | -76.98000 | 24689 ft | 435 kts | 297° |
| 2026-04-18 06:09 | 10.98471 | -77.00765 | 24975 ft | 436 kts | 298° |
| 2026-04-18 06:09 | 10.99819 | -77.03528 | 25263 ft | 437 kts | 298° |
| 2026-04-18 06:09 | 11.01171 | -77.06303 | 25546 ft | 438 kts | 297° |
| 2026-04-18 06:10 | 11.02522 | -77.09087 | 25818 ft | 439 kts | 298° |
| 2026-04-18 06:10 | 11.03877 | -77.11878 | 26083 ft | 440 kts | 298° |
| 2026-04-18 06:10 | 11.05218 | -77.14641 | 26333 ft | 442 kts | 297° |
| 2026-04-18 06:10 | 11.06580 | -77.17443 | 26589 ft | 443 kts | 298° |
| 2026-04-18 06:11 | 11.07952 | -77.20265 | 26851 ft | 444 kts | 297° |
| 2026-04-18 06:11 | 11.09322 | -77.23083 | 27103 ft | 445 kts | 297° |
| 2026-04-18 06:11 | 11.10698 | -77.25915 | 27359 ft | 447 kts | 298° |
| 2026-04-18 06:11 | 11.12076 | -77.28756 | 27623 ft | 448 kts | 298° |
| 2026-04-18 06:12 | 11.13459 | -77.31603 | 27885 ft | 449 kts | 298° |
| 2026-04-18 06:12 | 11.14845 | -77.34460 | 28137 ft | 450 kts | 297° |
| 2026-04-18 06:12 | 11.16230 | -77.37322 | 28394 ft | 452 kts | 297° |
| 2026-04-18 06:12 | 11.17599 | -77.40157 | 28643 ft | 453 kts | 297° |
| 2026-04-18 06:13 | 11.18992 | -77.43036 | 28894 ft | 454 kts | 297° |
| 2026-04-18 06:13 | 11.20387 | -77.45916 | 29124 ft | 455 kts | 297° |
| 2026-04-18 06:13 | 11.21788 | -77.48811 | 29352 ft | 456 kts | 297° |
| 2026-04-18 06:13 | 11.23195 | -77.51713 | 29579 ft | 457 kts | 297° |
| 2026-04-18 06:14 | 11.24607 | -77.54622 | 29801 ft | 459 kts | 297° |
| 2026-04-18 06:14 | 11.26022 | -77.57540 | 30019 ft | 460 kts | 297° |
| 2026-04-18 06:14 | 11.27440 | -77.60468 | 30204 ft | 461 kts | 297° |
| 2026-04-18 06:14 | 11.28842 | -77.63366 | 30388 ft | 463 kts | 297° |
| 2026-04-18 06:15 | 11.30264 | -77.66306 | 30617 ft | 463 kts | 297° |
| 2026-04-18 06:15 | 11.31690 | -77.69247 | 30898 ft | 462 kts | 297° |
| 2026-04-18 06:15 | 11.33113 | -77.72183 | 31198 ft | 461 kts | 297° |
| 2026-04-18 06:15 | 11.34528 | -77.75115 | 31470 ft | 461 kts | 297° |
| 2026-04-18 06:16 | 11.35939 | -77.78043 | 31762 ft | 460 kts | 297° |
| 2026-04-18 06:16 | 11.37346 | -77.80958 | 32046 ft | 459 kts | 297° |
| 2026-04-18 06:16 | 11.38756 | -77.83876 | 32321 ft | 459 kts | 297° |
| 2026-04-18 06:16 | 11.40162 | -77.86790 | 32628 ft | 458 kts | 297° |
| 2026-04-18 06:17 | 11.41544 | -77.89662 | 32904 ft | 457 kts | 297° |
| 2026-04-18 06:17 | 11.42942 | -77.92572 | 33180 ft | 457 kts | 297° |
| 2026-04-18 06:17 | 11.44337 | -77.95477 | 33473 ft | 456 kts | 297° |
| 2026-04-18 06:17 | 11.45730 | -77.98370 | 33748 ft | 455 kts | 297° |
| 2026-04-18 06:18 | 11.47126 | -78.01268 | 34011 ft | 455 kts | 297° |
| 2026-04-18 06:18 | 11.48521 | -78.04163 | 34257 ft | 454 kts | 297° |
| 2026-04-18 06:18 | 11.49914 | -78.07052 | 34508 ft | 454 kts | 297° |
| 2026-04-18 06:18 | 11.51288 | -78.09898 | 34756 ft | 453 kts | 297° |
| 2026-04-18 06:19 | 11.52674 | -78.12775 | 35004 ft | 452 kts | 297° |
| 2026-04-18 06:19 | 11.54060 | -78.15651 | 35254 ft | 451 kts | 297° |
| 2026-04-18 06:19 | 11.55444 | -78.18521 | 35496 ft | 450 kts | 297° |
| 2026-04-18 06:19 | 11.56822 | -78.21387 | 35742 ft | 450 kts | 297° |
| 2026-04-18 06:20 | 11.58199 | -78.24252 | 35897 ft | 450 kts | 297° |
| 2026-04-18 06:20 | 11.60929 | -78.29944 | 35933 ft | 446 kts | 297° |
| 2026-04-18 06:21 | 11.63649 | -78.35618 | 35939 ft | 445 kts | 297° |
| 2026-04-18 06:21 | 11.66353 | -78.41251 | 35938 ft | 445 kts | 297° |
| 2026-04-18 06:22 | 11.69070 | -78.46916 | 35935 ft | 445 kts | 297° |
| 2026-04-18 06:22 | 11.71789 | -78.52586 | 35937 ft | 445 kts | 297° |
| 2026-04-18 06:23 | 11.74491 | -78.58225 | 35942 ft | 445 kts | 297° |
| 2026-04-18 06:23 | 11.77210 | -78.63911 | 35947 ft | 446 kts | 297° |
| 2026-04-18 06:24 | 11.79885 | -78.69613 | 35949 ft | 446 kts | 292° |
| 2026-04-18 06:24 | 11.81641 | -78.75701 | 35951 ft | 448 kts | 286° |
| 2026-04-18 06:25 | 11.83248 | -78.81803 | 35949 ft | 448 kts | 286° |
| 2026-04-18 06:25 | 11.84881 | -78.87949 | 35951 ft | 449 kts | 287° |
| 2026-04-18 06:26 | 11.86514 | -78.94090 | 35956 ft | 449 kts | 287° |
| 2026-04-18 06:26 | 11.88142 | -79.00242 | 35956 ft | 449 kts | 287° |
| 2026-04-18 06:27 | 11.89758 | -79.06354 | 35946 ft | 449 kts | 287° |
| 2026-04-18 06:27 | 11.91387 | -79.12499 | 35947 ft | 449 kts | 287° |
| 2026-04-18 06:28 | 11.93017 | -79.18654 | 35954 ft | 449 kts | 287° |
| 2026-04-18 06:28 | 11.94644 | -79.24811 | 35955 ft | 449 kts | 287° |
| 2026-04-18 06:29 | 11.96252 | -79.30923 | 35956 ft | 449 kts | 286° |
| 2026-04-18 06:29 | 11.97875 | -79.37082 | 35957 ft | 449 kts | 286° |
| 2026-04-18 06:30 | 11.99491 | -79.43244 | 35951 ft | 449 kts | 287° |
| 2026-04-18 06:30 | 12.01112 | -79.49397 | 35952 ft | 449 kts | 287° |
| 2026-04-18 06:31 | 12.02726 | -79.55515 | 35955 ft | 449 kts | 287° |
| 2026-04-18 06:31 | 12.04346 | -79.61676 | 35953 ft | 449 kts | 287° |
| 2026-04-18 06:32 | 12.05959 | -79.67833 | 35954 ft | 449 kts | 287° |
| 2026-04-18 06:32 | 12.07567 | -79.73990 | 35957 ft | 449 kts | 287° |
| 2026-04-18 06:33 | 12.09177 | -79.80153 | 35951 ft | 449 kts | 287° |
| 2026-04-18 06:33 | 12.10783 | -79.86266 | 35949 ft | 449 kts | 287° |
| 2026-04-18 06:34 | 12.12397 | -79.92429 | 35956 ft | 449 kts | 287° |
| 2026-04-18 06:34 | 12.14002 | -79.98593 | 35957 ft | 449 kts | 287° |
| 2026-04-18 06:35 | 12.15604 | -80.04758 | 35953 ft | 449 kts | 287° |
| 2026-04-18 06:35 | 12.17198 | -80.10873 | 35955 ft | 449 kts | 287° |
| 2026-04-18 06:36 | 12.18806 | -80.17035 | 35949 ft | 448 kts | 287° |
| 2026-04-18 06:36 | 12.20410 | -80.23189 | 35947 ft | 448 kts | 287° |
| 2026-04-18 06:37 | 12.22008 | -80.29353 | 35945 ft | 448 kts | 287° |
| 2026-04-18 06:37 | 12.23593 | -80.35478 | 35952 ft | 448 kts | 287° |
| 2026-04-18 06:38 | 12.25191 | -80.41635 | 35952 ft | 448 kts | 287° |
| 2026-04-18 06:38 | 12.26793 | -80.47794 | 35955 ft | 448 kts | 287° |
| 2026-04-18 06:39 | 12.28393 | -80.53952 | 35948 ft | 448 kts | 287° |
| 2026-04-18 06:39 | 12.29975 | -80.60067 | 35945 ft | 448 kts | 287° |
| 2026-04-18 06:40 | 12.31560 | -80.66219 | 35950 ft | 448 kts | 287° |
| 2026-04-18 06:40 | 12.33150 | -80.72379 | 35952 ft | 448 kts | 287° |
| 2026-04-18 06:41 | 12.34741 | -80.78538 | 35948 ft | 448 kts | 287° |
| 2026-04-18 06:41 | 12.36311 | -80.84651 | 35948 ft | 448 kts | 287° |
| 2026-04-18 06:42 | 12.37897 | -80.90808 | 35949 ft | 447 kts | 287° |
| 2026-04-18 06:42 | 12.39479 | -80.96964 | 35939 ft | 447 kts | 287° |
| 2026-04-18 06:43 | 12.41059 | -81.03121 | 35940 ft | 447 kts | 287° |
| 2026-04-18 06:43 | 12.42625 | -81.09235 | 35944 ft | 448 kts | 287° |
| 2026-04-18 06:44 | 12.44206 | -81.15400 | 35948 ft | 448 kts | 287° |
| 2026-04-18 06:44 | 12.45789 | -81.21570 | 35953 ft | 448 kts | 287° |
| 2026-04-18 06:45 | 12.47372 | -81.27743 | 35955 ft | 448 kts | 287° |
| 2026-04-18 06:45 | 12.48927 | -81.33870 | 35952 ft | 448 kts | 287° |
| 2026-04-18 06:46 | 12.50494 | -81.40045 | 35951 ft | 448 kts | 287° |
| 2026-04-18 06:46 | 12.52057 | -81.46211 | 35949 ft | 448 kts | 287° |
| 2026-04-18 06:47 | 12.53633 | -81.52379 | 35950 ft | 448 kts | 287° |
| 2026-04-18 06:47 | 12.55203 | -81.58544 | 35977 ft | 447 kts | 287° |
| 2026-04-18 06:48 | 12.56759 | -81.64662 | 35986 ft | 448 kts | 287° |
| 2026-04-18 06:48 | 12.58899 | -81.70589 | 35978 ft | 442 kts | 302° |
| 2026-04-18 06:49 | 12.62625 | -81.75512 | 35977 ft | 437 kts | 314° |
| 2026-04-18 06:49 | 12.66698 | -81.80134 | 35959 ft | 437 kts | 314° |
| 2026-04-18 06:50 | 12.70720 | -81.84736 | 35956 ft | 437 kts | 314° |
| 2026-04-18 06:50 | 12.74771 | -81.89367 | 35947 ft | 436 kts | 314° |
| 2026-04-18 06:51 | 12.78827 | -81.93986 | 35945 ft | 436 kts | 314° |
| 2026-04-18 06:51 | 12.82873 | -81.98612 | 35951 ft | 436 kts | 314° |
| 2026-04-18 06:52 | 12.86911 | -82.03233 | 35950 ft | 436 kts | 314° |
| 2026-04-18 06:52 | 12.90926 | -82.07832 | 35948 ft | 436 kts | 314° |
| 2026-04-18 06:53 | 12.94968 | -82.12460 | 35949 ft | 436 kts | 314° |
| 2026-04-18 06:53 | 12.99006 | -82.17084 | 35953 ft | 436 kts | 314° |
| 2026-04-18 06:54 | 13.03049 | -82.21714 | 35953 ft | 435 kts | 314° |
| 2026-04-18 06:54 | 13.07055 | -82.26304 | 35952 ft | 435 kts | 314° |
| 2026-04-18 06:55 | 13.11084 | -82.30925 | 35948 ft | 434 kts | 314° |
| 2026-04-18 06:55 | 13.15106 | -82.35549 | 35944 ft | 434 kts | 313° |
| 2026-04-18 06:56 | 13.19125 | -82.40170 | 35950 ft | 434 kts | 314° |
| 2026-04-18 06:56 | 13.23125 | -82.44766 | 35945 ft | 434 kts | 314° |
| 2026-04-18 06:57 | 13.27152 | -82.49393 | 35950 ft | 434 kts | 314° |
| 2026-04-18 06:57 | 13.33184 | -82.56328 | 35946 ft | 434 kts | 314° |
| 2026-04-18 06:58 | 13.37207 | -82.60955 | 35946 ft | 434 kts | 314° |
| 2026-04-18 06:58 | 13.41203 | -82.65554 | 35958 ft | 434 kts | 314° |
| 2026-04-18 06:59 | 13.45216 | -82.70182 | 35958 ft | 434 kts | 313° |
| 2026-04-18 06:59 | 13.49230 | -82.74817 | 35958 ft | 434 kts | 313° |
| 2026-04-18 07:00 | 13.53247 | -82.79447 | 35952 ft | 434 kts | 314° |
| 2026-04-18 07:00 | 13.57258 | -82.84076 | 35959 ft | 433 kts | 314° |
| 2026-04-18 07:01 | 13.61233 | -82.88667 | 35959 ft | 433 kts | 314° |
| 2026-04-18 07:01 | 13.65238 | -82.93292 | 35953 ft | 433 kts | 314° |
| 2026-04-18 07:02 | 13.69240 | -82.97908 | 35956 ft | 433 kts | 314° |
| 2026-04-18 07:02 | 13.73238 | -83.02539 | 35956 ft | 433 kts | 313° |
| 2026-04-18 07:03 | 13.77207 | -83.07144 | 35959 ft | 433 kts | 313° |
| 2026-04-18 07:03 | 13.81207 | -83.11777 | 35959 ft | 433 kts | 314° |
| 2026-04-18 07:04 | 13.85206 | -83.16400 | 35954 ft | 433 kts | 314° |
| 2026-04-18 07:04 | 13.89199 | -83.21031 | 35962 ft | 432 kts | 314° |
| 2026-04-18 07:05 | 13.93161 | -83.25627 | 35959 ft | 432 kts | 314° |
| 2026-04-18 07:05 | 13.97138 | -83.30246 | 35962 ft | 431 kts | 314° |
| 2026-04-18 07:06 | 14.01118 | -83.34866 | 35961 ft | 431 kts | 314° |
| 2026-04-18 07:06 | 14.05075 | -83.39499 | 35957 ft | 431 kts | 312° |
| 2026-04-18 07:07 | 14.08769 | -83.44328 | 35960 ft | 432 kts | 309° |
| 2026-04-18 07:07 | 14.12340 | -83.49320 | 35966 ft | 433 kts | 308° |
| 2026-04-18 07:08 | 14.15928 | -83.54295 | 35959 ft | 433 kts | 309° |
| 2026-04-18 07:08 | 14.19570 | -83.59232 | 35968 ft | 432 kts | 310° |
| 2026-04-18 07:09 | 14.23225 | -83.64156 | 35968 ft | 432 kts | 310° |
| 2026-04-18 07:09 | 14.26836 | -83.69049 | 35967 ft | 432 kts | 309° |
| 2026-04-18 07:10 | 14.30464 | -83.73986 | 35968 ft | 432 kts | 309° |
| 2026-04-18 07:10 | 14.34095 | -83.78917 | 35972 ft | 431 kts | 310° |
| 2026-04-18 07:11 | 14.37728 | -83.83845 | 35970 ft | 431 kts | 309° |
| 2026-04-18 07:11 | 14.41323 | -83.88745 | 35969 ft | 432 kts | 309° |
| 2026-04-18 07:12 | 14.44948 | -83.93683 | 35964 ft | 431 kts | 310° |
| 2026-04-18 07:12 | 14.48574 | -83.98621 | 35969 ft | 432 kts | 309° |
| 2026-04-18 07:13 | 14.52194 | -84.03559 | 35968 ft | 432 kts | 309° |
| 2026-04-18 07:13 | 14.55823 | -84.08500 | 35973 ft | 432 kts | 310° |
| 2026-04-18 07:14 | 14.59427 | -84.13411 | 35978 ft | 432 kts | 309° |
| 2026-04-18 07:14 | 14.63051 | -84.18361 | 35980 ft | 432 kts | 309° |
| 2026-04-18 07:15 | 14.66665 | -84.23311 | 35975 ft | 432 kts | 309° |
| 2026-04-18 07:15 | 14.70284 | -84.28263 | 35971 ft | 432 kts | 309° |
| 2026-04-18 07:16 | 14.73886 | -84.33175 | 35973 ft | 431 kts | 310° |
| 2026-04-18 07:16 | 14.77501 | -84.38115 | 35972 ft | 431 kts | 309° |
| 2026-04-18 07:17 | 14.81113 | -84.43065 | 35976 ft | 431 kts | 309° |
| 2026-04-18 07:17 | 14.84720 | -84.48019 | 35977 ft | 431 kts | 309° |
| 2026-04-18 07:18 | 14.88296 | -84.52937 | 35982 ft | 431 kts | 309° |
| 2026-04-18 07:18 | 14.91902 | -84.57890 | 35979 ft | 431 kts | 309° |
| 2026-04-18 07:19 | 14.95513 | -84.62844 | 35984 ft | 431 kts | 309° |
| 2026-04-18 07:19 | 14.99122 | -84.67796 | 35980 ft | 431 kts | 309° |
| 2026-04-18 07:20 | 15.02695 | -84.72727 | 35984 ft | 431 kts | 309° |
| 2026-04-18 07:20 | 15.06287 | -84.77676 | 35984 ft | 430 kts | 309° |
| 2026-04-18 07:21 | 15.09887 | -84.82617 | 35992 ft | 430 kts | 309° |
| 2026-04-18 07:21 | 15.13482 | -84.87559 | 35991 ft | 430 kts | 309° |
| 2026-04-18 07:22 | 15.17067 | -84.92502 | 35990 ft | 429 kts | 309° |
| 2026-04-18 07:22 | 15.20630 | -84.97418 | 36005 ft | 430 kts | 309° |
| 2026-04-18 07:23 | 15.24216 | -85.02366 | 36005 ft | 429 kts | 309° |
| 2026-04-18 07:23 | 15.27797 | -85.07316 | 36004 ft | 429 kts | 309° |
| 2026-04-18 07:24 | 15.31376 | -85.12261 | 36008 ft | 429 kts | 309° |
| 2026-04-18 07:24 | 15.34919 | -85.17168 | 36017 ft | 428 kts | 309° |
| 2026-04-18 07:25 | 15.38492 | -85.22109 | 36020 ft | 428 kts | 309° |
| 2026-04-18 07:25 | 15.42053 | -85.27042 | 36020 ft | 428 kts | 309° |
| 2026-04-18 07:26 | 15.45616 | -85.31977 | 36017 ft | 427 kts | 309° |
| 2026-04-18 07:26 | 15.49153 | -85.36882 | 36018 ft | 427 kts | 309° |
| 2026-04-18 07:27 | 15.52709 | -85.41817 | 36020 ft | 427 kts | 309° |
| 2026-04-18 07:27 | 15.56268 | -85.46754 | 36018 ft | 427 kts | 309° |
| 2026-04-18 07:28 | 15.59820 | -85.51684 | 36001 ft | 427 kts | 309° |
| 2026-04-18 07:28 | 15.63372 | -85.56618 | 36002 ft | 427 kts | 309° |
| 2026-04-18 07:29 | 15.66895 | -85.61522 | 36000 ft | 426 kts | 309° |
| 2026-04-18 07:29 | 15.70438 | -85.66457 | 35998 ft | 426 kts | 309° |
| 2026-04-18 07:30 | 15.73979 | -85.71389 | 35997 ft | 427 kts | 309° |
| 2026-04-18 07:30 | 15.77504 | -85.76296 | 35988 ft | 427 kts | 309° |
| 2026-04-18 07:31 | 15.81046 | -85.81242 | 35988 ft | 427 kts | 309° |
| 2026-04-18 07:31 | 15.84584 | -85.86187 | 35989 ft | 427 kts | 309° |
| 2026-04-18 07:32 | 15.88125 | -85.91141 | 35991 ft | 427 kts | 309° |
| 2026-04-18 07:32 | 15.91650 | -85.96059 | 35982 ft | 427 kts | 309° |
| 2026-04-18 07:33 | 15.95195 | -86.01001 | 35981 ft | 427 kts | 309° |
| 2026-04-18 07:33 | 15.98736 | -86.05961 | 35980 ft | 427 kts | 309° |
| 2026-04-18 07:34 | 16.02279 | -86.10926 | 35980 ft | 427 kts | 309° |
| 2026-04-18 07:34 | 16.05823 | -86.15879 | 35969 ft | 427 kts | 309° |
| 2026-04-18 07:35 | 16.09339 | -86.20801 | 35962 ft | 427 kts | 309° |
| 2026-04-18 07:35 | 16.12876 | -86.25764 | 35966 ft | 427 kts | 309° |
| 2026-04-18 07:36 | 16.16411 | -86.30736 | 35959 ft | 427 kts | 309° |
| 2026-04-18 07:36 | 16.19946 | -86.35708 | 35960 ft | 427 kts | 309° |
| 2026-04-18 07:37 | 16.23454 | -86.40640 | 35964 ft | 427 kts | 309° |
| 2026-04-18 07:37 | 16.26992 | -86.45614 | 35961 ft | 428 kts | 309° |
| 2026-04-18 07:38 | 16.30527 | -86.50598 | 35961 ft | 428 kts | 309° |
| 2026-04-18 07:38 | 16.34043 | -86.55591 | 35960 ft | 428 kts | 308° |
| 2026-04-18 07:39 | 16.37499 | -86.60595 | 35951 ft | 428 kts | 308° |
| 2026-04-18 07:39 | 16.40972 | -86.65641 | 35955 ft | 429 kts | 308° |
| 2026-04-18 07:40 | 16.44446 | -86.70683 | 35946 ft | 429 kts | 308° |
| 2026-04-18 07:40 | 16.47919 | -86.75737 | 35946 ft | 429 kts | 308° |
| 2026-04-18 07:41 | 16.51371 | -86.80753 | 35953 ft | 429 kts | 308° |
| 2026-04-18 07:41 | 16.54847 | -86.85799 | 35948 ft | 429 kts | 308° |
| 2026-04-18 07:42 | 16.58331 | -86.90854 | 35929 ft | 430 kts | 308° |
| 2026-04-18 07:42 | 16.61799 | -86.95906 | 34683 ft | 428 kts | 308° |
| 2026-04-18 07:43 | 16.63563 | -86.98472 | 32936 ft | 445 kts | 308° |
| 2026-04-18 07:43 | 16.65382 | -87.01119 | 32130 ft | 448 kts | 308° |
| 2026-04-18 07:43 | 16.67143 | -87.03689 | 32003 ft | 434 kts | 308° |
| 2026-04-18 07:43 | 16.68871 | -87.06219 | 31761 ft | 424 kts | 308° |
| 2026-04-18 07:44 | 16.70577 | -87.08713 | 31226 ft | 422 kts | 308° |
| 2026-04-18 07:44 | 16.72279 | -87.11197 | 30704 ft | 420 kts | 308° |
| 2026-04-18 07:44 | 16.73973 | -87.13670 | 30184 ft | 418 kts | 308° |
| 2026-04-18 07:44 | 16.75658 | -87.16130 | 29615 ft | 415 kts | 308° |
| 2026-04-18 07:45 | 16.77332 | -87.18572 | 29116 ft | 412 kts | 308° |
| 2026-04-18 07:45 | 16.78992 | -87.20989 | 28604 ft | 408 kts | 308° |
| 2026-04-18 07:45 | 16.80616 | -87.23353 | 28117 ft | 404 kts | 308° |
| 2026-04-18 07:45 | 16.82243 | -87.25725 | 27626 ft | 401 kts | 308° |
| 2026-04-18 07:46 | 16.83856 | -87.28084 | 27143 ft | 398 kts | 308° |
| 2026-04-18 07:46 | 16.85455 | -87.30424 | 26678 ft | 394 kts | 308° |
| 2026-04-18 07:46 | 16.87042 | -87.32746 | 26207 ft | 391 kts | 308° |
| 2026-04-18 07:46 | 16.88615 | -87.35050 | 25768 ft | 388 kts | 307° |
| 2026-04-18 07:47 | 16.90169 | -87.37332 | 25326 ft | 385 kts | 308° |
| 2026-04-18 07:47 | 16.91716 | -87.39602 | 24890 ft | 382 kts | 307° |
| 2026-04-18 07:47 | 16.93254 | -87.41857 | 24464 ft | 380 kts | 308° |
| 2026-04-18 07:47 | 16.94766 | -87.44068 | 24043 ft | 378 kts | 308° |
| 2026-04-18 07:48 | 16.96292 | -87.46301 | 23610 ft | 377 kts | 308° |
| 2026-04-18 07:48 | 16.97808 | -87.48521 | 23132 ft | 375 kts | 308° |
| 2026-04-18 07:48 | 16.99317 | -87.50733 | 22683 ft | 372 kts | 307° |
| 2026-04-18 07:48 | 17.00812 | -87.52927 | 22250 ft | 369 kts | 308° |
| 2026-04-18 07:49 | 17.02295 | -87.55104 | 21810 ft | 367 kts | 307° |
| 2026-04-18 07:49 | 17.03768 | -87.57270 | 21371 ft | 364 kts | 307° |
| 2026-04-18 07:49 | 17.05211 | -87.59396 | 20939 ft | 362 kts | 307° |
| 2026-04-18 07:49 | 17.06664 | -87.61536 | 20498 ft | 361 kts | 308° |
| 2026-04-18 07:50 | 17.08117 | -87.63672 | 20060 ft | 359 kts | 308° |
| 2026-04-18 07:50 | 17.09564 | -87.65798 | 19617 ft | 358 kts | 308° |
| 2026-04-18 07:50 | 17.10999 | -87.67904 | 19256 ft | 355 kts | 308° |
| 2026-04-18 07:50 | 17.12431 | -87.70007 | 18814 ft | 355 kts | 308° |
| 2026-04-18 07:51 | 17.13862 | -87.72109 | 18344 ft | 356 kts | 308° |
| 2026-04-18 07:51 | 17.15298 | -87.74217 | 17866 ft | 355 kts | 307° |
| 2026-04-18 07:51 | 17.16727 | -87.76320 | 17431 ft | 354 kts | 308° |
| 2026-04-18 07:51 | 17.18128 | -87.78384 | 17015 ft | 352 kts | 307° |
| 2026-04-18 07:52 | 17.19538 | -87.80468 | 16573 ft | 350 kts | 307° |
| 2026-04-18 07:52 | 17.20940 | -87.82545 | 16168 ft | 349 kts | 307° |
| 2026-04-18 07:52 | 17.22340 | -87.84613 | 15763 ft | 348 kts | 307° |
| 2026-04-18 07:52 | 17.23734 | -87.86670 | 15324 ft | 347 kts | 307° |
| 2026-04-18 07:53 | 17.25127 | -87.88727 | 14918 ft | 346 kts | 307° |
| 2026-04-18 07:53 | 17.26520 | -87.90779 | 14502 ft | 346 kts | 307° |
| 2026-04-18 07:53 | 17.27912 | -87.92829 | 14086 ft | 345 kts | 307° |
| 2026-04-18 07:53 | 17.29286 | -87.94853 | 13647 ft | 346 kts | 307° |
| 2026-04-18 07:54 | 17.30673 | -87.96901 | 13205 ft | 345 kts | 307° |
| 2026-04-18 07:54 | 17.32055 | -87.98946 | 12777 ft | 343 kts | 307° |
| 2026-04-18 07:54 | 17.33431 | -88.00984 | 12337 ft | 342 kts | 306° |
| 2026-04-18 07:54 | 17.34801 | -88.03012 | 11916 ft | 340 kts | 306° |
| 2026-04-18 07:55 | 17.36166 | -88.05032 | 11482 ft | 339 kts | 305° |
| 2026-04-18 07:55 | 17.37528 | -88.07045 | 11052 ft | 338 kts | 305° |
| 2026-04-18 07:55 | 17.38885 | -88.09050 | 10615 ft | 338 kts | 304° |
| 2026-04-18 07:55 | 17.40234 | -88.11037 | 10220 ft | 330 kts | 304° |
| 2026-04-18 07:56 | 17.41503 | -88.12907 | 9922 ft | 311 kts | 304° |
| 2026-04-18 07:56 | 17.42741 | -88.14732 | 9472 ft | 304 kts | 304° |
| 2026-04-18 07:56 | 17.43955 | -88.16527 | 9330 ft | 301 kts | 304° |
| 2026-04-18 07:56 | 17.45163 | -88.18322 | 9025 ft | 303 kts | 304° |
| 2026-04-18 07:57 | 17.46365 | -88.20106 | 8521 ft | 298 kts | 304° |
| 2026-04-18 07:57 | 17.47559 | -88.21880 | 8041 ft | 299 kts | 304° |
| 2026-04-18 07:57 | 17.48759 | -88.23662 | 7605 ft | 299 kts | 305° |
| 2026-04-18 07:57 | 17.49953 | -88.25433 | 7204 ft | 293 kts | 305° |
| 2026-04-18 07:58 | 17.52260 | -88.28858 | 6080 ft | 288 kts | 306° |
| 2026-04-18 07:58 | 17.53392 | -88.30583 | 5577 ft | 288 kts | 300° |
| 2026-04-18 07:58 | 17.54173 | -88.32500 | 5109 ft | 286 kts | 284° |
| 2026-04-18 07:59 | 17.54578 | -88.34533 | 4628 ft | 285 kts | 281° |
| 2026-04-18 07:59 | 17.54965 | -88.36567 | 4139 ft | 284 kts | 281° |
| 2026-04-18 07:59 | 17.55361 | -88.38617 | 3666 ft | 289 kts | 281° |
| 2026-04-18 07:59 | 17.55763 | -88.40677 | 3243 ft | 289 kts | 281° |
| 2026-04-18 08:00 | 17.56163 | -88.42728 | 2991 ft | 282 kts | 281° |
| 2026-04-18 08:00 | 17.56541 | -88.44678 | 2985 ft | 265 kts | 281° |
| 2026-04-18 08:00 | 17.56895 | -88.46492 | 2987 ft | 250 kts | 281° |
| 2026-04-18 08:00 | 17.57078 | -88.48278 | 2998 ft | 244 kts | 258° |
| 2026-04-18 08:01 | 17.56409 | -88.49765 | 3017 ft | 211 kts | 224° |
| 2026-04-18 08:01 | 17.55353 | -88.50624 | 2989 ft | 180 kts | 200° |
| 2026-04-18 08:01 | 17.54222 | -88.51008 | 2986 ft | 165 kts | 181° |
| 2026-04-18 08:01 | 17.53113 | -88.51001 | 2992 ft | 156 kts | 163° |
| 2026-04-18 08:02 | 17.52109 | -88.50645 | 2995 ft | 150 kts | 147° |
| 2026-04-18 08:02 | 17.51283 | -88.50007 | 3026 ft | 146 kts | 131° |
| 2026-04-18 08:02 | 17.50690 | -88.49170 | 3000 ft | 145 kts | 117° |
| 2026-04-18 08:02 | 17.50356 | -88.48183 | 2998 ft | 144 kts | 101° |
| 2026-04-18 08:03 | 17.50392 | -88.47134 | 2939 ft | 148 kts | 82° |
| 2026-04-18 08:03 | 17.50577 | -88.46088 | 2707 ft | 143 kts | 81° |
| 2026-04-18 08:03 | 17.50777 | -88.45082 | 2510 ft | 139 kts | 80° |
| 2026-04-18 08:03 | 17.50986 | -88.44091 | 2323 ft | 139 kts | 80° |
| 2026-04-18 08:04 | 17.51199 | -88.43103 | 2137 ft | 139 kts | 79° |
| 2026-04-18 08:04 | 17.51414 | -88.42121 | 1959 ft | 137 kts | 79° |
| 2026-04-18 08:04 | 17.51629 | -88.41144 | 1784 ft | 137 kts | 80° |
| 2026-04-18 08:04 | 17.51845 | -88.40164 | 1597 ft | 138 kts | 79° |
| 2026-04-18 08:05 | 17.52058 | -88.39201 | 1421 ft | 137 kts | 78° |
| 2026-04-18 08:05 | 17.52273 | -88.38228 | 1237 ft | 138 kts | 78° |
| 2026-04-18 08:05 | 17.52489 | -88.37253 | 1062 ft | 137 kts | 79° |
| 2026-04-18 08:05 | 17.52702 | -88.36286 | 891 ft | 136 kts | 78° |
| 2026-04-18 08:06 | 17.52917 | -88.35315 | 717 ft | 137 kts | 79° |
| 2026-04-18 08:06 | 17.53134 | -88.34332 | 546 ft | 139 kts | 78° |
| 2026-04-18 08:06 | 17.53350 | -88.33353 | 358 ft | 139 kts | 77° |
| 2026-04-18 08:06 | 17.53562 | -88.32367 | 182 ft | 141 kts | 76° |
| 2026-04-18 08:07 | 17.53788 | -88.31379 | 34 ft | 137 kts | 79° |
| 2026-04-18 08:07 | 17.53967 | -88.30512 | 18 ft | 105 kts | 76° |
| 2026-04-18 08:07 | 17.54090 | -88.29963 | 17 ft | 50 kts | 76° |
| 2026-04-18 08:07 | 17.54155 | -88.29675 | 19 ft | 38 kts | 77° |
| 2026-04-18 08:08 | 17.54210 | -88.29442 | 19 ft | 23 kts | 73° |
| 2026-04-18 08:08 | 17.54257 | -88.29284 | 18 ft | 22 kts | 72° |
| 2026-04-18 08:08 | 17.54288 | -88.29147 | 18 ft | 11 kts | 113° |
| 2026-04-18 08:08 | 17.54263 | -88.29166 | 18 ft | 9 kts | 256° |
| 2026-04-18 08:09 | 17.54241 | -88.29286 | 17 ft | 22 kts | 260° |
| 2026-04-18 08:09 | 17.54207 | -88.29447 | 19 ft | 22 kts | 257° |
| 2026-04-18 08:09 | 17.54173 | -88.29598 | 18 ft | 21 kts | 256° |
| 2026-04-18 08:09 | 17.54139 | -88.29748 | 18 ft | 21 kts | 257° |
| 2026-04-18 08:10 | 17.54108 | -88.29892 | 17 ft | 20 kts | 257° |
| 2026-04-18 08:10 | 17.54077 | -88.30032 | 17 ft | 19 kts | 257° |
| 2026-04-18 08:10 | 17.54046 | -88.30165 | 18 ft | 18 kts | 257° |
| 2026-04-18 08:10 | 17.54020 | -88.30286 | 21 ft | 16 kts | 257° |
| 2026-04-18 08:11 | 17.53995 | -88.30403 | 18 ft | 17 kts | 257° |
| 2026-04-18 08:11 | 17.53964 | -88.30557 | 19 ft | 26 kts | 258° |
| 2026-04-18 08:11 | 17.53927 | -88.30740 | 18 ft | 25 kts | 257° |
| 2026-04-18 08:11 | 17.53887 | -88.30863 | 18 ft | 8 kts | 207° |
| 2026-04-18 08:12 | 17.53828 | -88.30870 | 17 ft | 9 kts | 171° |
| 2026-04-18 08:12 | 17.53771 | -88.30858 | 17 ft | 8 kts | 162° |
| 2026-04-18 08:12 | 17.53742 | -88.30818 | 17 ft | 7 kts | 95° |
| 2026-04-18 08:12 | 17.53748 | -88.30768 | 17 ft | 7 kts | 85° |
| 2026-04-18 08:13 | 17.53753 | -88.30721 | 17 ft | 5 kts | 83° |
| 2026-04-18 08:13 | 17.53754 | -88.30709 | 17 ft | 0 kts | 82° |